createdAt,value
2022-09-03T00:00:21.524Z,0.00
2022-09-03T00:01:21.923Z,0.00
2022-09-03T00:02:22.261Z,0.00
2022-09-03T00:03:22.719Z,0.00
2022-09-03T00:04:25.777Z,0.00
2022-09-03T00:05:23.344Z,0.00
2022-09-03T00:06:23.689Z,0.00
2022-09-03T00:07:24.056Z,0.00
2022-09-03T00:08:24.556Z,0.00
2022-09-03T00:09:24.807Z,0.00
2022-09-03T00:10:25.125Z,0.00
2022-09-03T00:11:25.505Z,0.00
2022-09-03T00:12:25.843Z,0.00
2022-09-03T00:13:26.519Z,0.00
2022-09-03T00:14:26.617Z,0.00
2022-09-03T00:15:27.033Z,0.00
2022-09-03T00:16:27.378Z,0.00
2022-09-03T00:17:27.738Z,0.00
2022-09-03T00:18:28.075Z,0.00
2022-09-03T00:19:28.419Z,0.00
2022-09-03T00:20:28.776Z,0.00
2022-09-03T00:21:29.133Z,0.00
2022-09-03T00:22:29.506Z,0.00
2022-09-03T00:23:29.904Z,0.00
2022-09-03T00:24:30.205Z,0.00
2022-09-03T00:25:30.588Z,0.00
2022-09-03T00:26:30.965Z,0.00
2022-09-03T00:27:31.292Z,0.00
2022-09-03T00:28:31.674Z,0.00
2022-09-03T00:29:32.016Z,0.00
2022-09-03T00:30:32.392Z,0.00
2022-09-03T00:31:32.833Z,0.00
2022-09-03T00:32:33.109Z,0.00
2022-09-03T00:33:33.487Z,0.00
2022-09-03T00:34:33.857Z,0.00
2022-09-03T00:35:34.214Z,0.00
2022-09-03T00:36:34.620Z,0.00
2022-09-03T00:37:38.040Z,0.00
2022-09-03T00:38:35.307Z,0.00
2022-09-03T00:39:35.705Z,0.00
2022-09-03T00:40:36.031Z,0.00
2022-09-03T00:41:36.383Z,0.00
2022-09-03T00:42:36.776Z,0.00
2022-09-03T00:43:37.098Z,0.00
2022-09-03T00:44:37.477Z,0.00
2022-09-03T00:45:37.805Z,0.00
2022-09-03T00:46:38.211Z,0.00
2022-09-03T00:47:38.549Z,0.00
2022-09-03T00:48:38.956Z,0.00
2022-09-03T00:49:39.262Z,0.00
2022-09-03T00:50:39.616Z,0.00
2022-09-03T00:51:40.002Z,0.00
2022-09-03T00:52:40.358Z,0.00
2022-09-03T00:53:40.746Z,0.00
2022-09-03T00:54:41.873Z,0.00
2022-09-03T00:55:41.414Z,0.00
2022-09-03T00:56:41.767Z,0.00
2022-09-03T00:57:42.117Z,0.00
2022-09-03T00:58:42.488Z,0.00
2022-09-03T00:59:42.840Z,0.00
2022-09-03T01:00:43.212Z,0.00
2022-09-03T01:01:43.774Z,0.00
2022-09-03T01:02:44.119Z,0.00
2022-09-03T01:03:44.322Z,0.00
2022-09-03T01:04:44.685Z,0.00
2022-09-03T01:05:45.132Z,0.00
2022-09-03T01:06:45.444Z,0.00
2022-09-03T01:07:45.819Z,0.00
2022-09-03T01:08:49.205Z,0.00
2022-09-03T01:09:46.541Z,0.00
2022-09-03T01:10:46.899Z,0.00
2022-09-03T01:11:47.290Z,0.00
2022-09-03T01:12:47.657Z,0.00
2022-09-03T01:13:47.995Z,0.00
2022-09-03T01:14:48.338Z,0.00
2022-09-03T01:15:48.747Z,0.00
2022-09-03T01:16:49.084Z,0.00
2022-09-03T01:17:49.433Z,0.00
2022-09-03T01:18:49.802Z,0.00
2022-09-03T01:19:50.267Z,0.00
2022-09-03T01:20:50.667Z,0.00
2022-09-03T01:21:50.875Z,0.00
2022-09-03T01:22:51.248Z,0.00
2022-09-03T01:23:51.622Z,0.00
2022-09-03T01:24:51.974Z,0.00
2022-09-03T01:25:52.345Z,0.00
2022-09-03T01:26:52.713Z,0.00
2022-09-03T01:27:53.064Z,0.00
2022-09-03T01:28:53.428Z,0.00
2022-09-03T01:29:53.776Z,0.00
2022-09-03T01:30:54.163Z,0.00
2022-09-03T01:31:54.513Z,0.00
2022-09-03T01:32:54.842Z,0.00
2022-09-03T01:33:55.232Z,0.00
2022-09-03T01:34:55.555Z,0.00
2022-09-03T01:35:55.904Z,0.00
2022-09-03T01:36:56.246Z,0.00
2022-09-03T01:37:56.607Z,0.00
2022-09-03T01:38:57.033Z,0.00
2022-09-03T01:39:57.432Z,0.00
2022-09-03T01:40:57.684Z,0.00
2022-09-03T01:41:58.035Z,0.00
2022-09-03T01:42:58.410Z,0.00
2022-09-03T01:43:58.784Z,0.00
2022-09-03T01:44:59.139Z,0.00
2022-09-03T01:45:59.522Z,0.00
2022-09-03T01:46:59.876Z,0.00
2022-09-03T01:48:00.229Z,0.00
2022-09-03T01:49:00.595Z,0.00
2022-09-03T01:50:00.959Z,0.00
2022-09-03T01:51:01.346Z,0.00
2022-09-03T01:52:01.645Z,0.00
2022-09-03T01:53:02.021Z,0.00
2022-09-03T01:54:02.400Z,0.00
2022-09-03T01:55:02.733Z,0.00
2022-09-03T01:56:03.098Z,0.00
2022-09-03T01:57:03.444Z,0.00
2022-09-03T01:58:03.861Z,0.00
2022-09-03T01:59:04.253Z,0.00
2022-09-03T02:00:04.540Z,0.00
2022-09-03T02:01:04.922Z,0.00
2022-09-03T02:02:05.282Z,0.00
2022-09-03T02:03:05.635Z,0.00
2022-09-03T02:04:06.025Z,0.00
2022-09-03T02:05:06.367Z,0.00
2022-09-03T02:06:06.737Z,0.00
2022-09-03T02:07:07.076Z,0.00
2022-09-03T02:08:07.434Z,0.00
2022-09-03T02:09:07.851Z,0.00
2022-09-03T02:10:08.162Z,0.00
2022-09-03T02:11:08.511Z,0.00
2022-09-03T02:12:08.882Z,0.00
2022-09-03T02:13:09.240Z,0.00
2022-09-03T02:14:09.602Z,0.00
2022-09-03T02:15:09.952Z,0.00
2022-09-03T02:16:10.380Z,0.00
2022-09-03T02:17:10.669Z,0.00
2022-09-03T02:18:11.052Z,0.00
2022-09-03T02:19:11.445Z,0.00
2022-09-03T02:20:11.734Z,0.00
2022-09-03T02:21:12.082Z,0.00
2022-09-03T02:22:12.521Z,0.00
2022-09-03T02:23:12.814Z,0.00
2022-09-03T02:24:13.192Z,0.00
2022-09-03T02:25:13.546Z,0.00
2022-09-03T02:26:13.902Z,0.00
2022-09-03T02:27:14.261Z,0.00
2022-09-03T02:28:16.959Z,0.00
2022-09-03T02:29:15.042Z,0.00
2022-09-03T02:30:15.349Z,0.00
2022-09-03T02:31:15.821Z,0.00
2022-09-03T02:32:16.957Z,0.00
2022-09-03T02:33:16.466Z,0.00
2022-09-03T02:34:16.818Z,0.00
2022-09-03T02:35:17.177Z,0.00
2022-09-03T02:36:17.574Z,0.00
2022-09-03T02:37:17.942Z,0.00
2022-09-03T02:38:18.280Z,0.00
2022-09-03T02:39:19.151Z,0.00
2022-09-03T02:40:18.988Z,0.00
2022-09-03T02:41:19.381Z,0.00
2022-09-03T02:42:19.719Z,0.00
2022-09-03T02:43:20.095Z,0.00
2022-09-03T02:44:20.470Z,0.00
2022-09-03T02:45:20.837Z,0.00
2022-09-03T02:46:21.213Z,0.00
2022-09-03T02:47:21.551Z,0.00
2022-09-03T02:48:21.985Z,0.00
2022-09-03T02:49:22.335Z,0.00
2022-09-03T02:50:22.678Z,0.00
2022-09-03T02:51:23.038Z,0.00
2022-09-03T02:52:23.389Z,0.00
2022-09-03T02:53:23.775Z,0.00
2022-09-03T02:54:24.154Z,0.00
2022-09-03T02:55:24.501Z,0.00
2022-09-03T02:56:24.945Z,0.00
2022-09-03T02:57:27.680Z,0.00
2022-09-03T02:58:25.604Z,0.00
2022-09-03T02:59:26.069Z,0.00
2022-09-03T03:00:26.339Z,0.00
2022-09-03T03:01:26.740Z,0.00
2022-09-03T03:02:27.114Z,0.00
2022-09-03T03:03:27.414Z,0.00
2022-09-03T03:04:27.861Z,0.00
2022-09-03T03:05:28.124Z,0.00
2022-09-03T03:06:28.497Z,0.00
2022-09-03T03:07:28.868Z,0.00
2022-09-03T03:08:29.218Z,0.00
2022-09-03T03:09:29.586Z,0.00
2022-09-03T03:10:29.951Z,0.00
2022-09-03T03:11:30.326Z,0.00
2022-09-03T03:12:30.700Z,0.00
2022-09-03T03:13:31.042Z,0.00
2022-09-03T03:14:31.442Z,0.00
2022-09-03T03:15:31.798Z,0.00
2022-09-03T03:16:32.173Z,0.00
2022-09-03T03:17:32.486Z,0.00
2022-09-03T03:18:32.867Z,0.00
2022-09-03T03:19:33.219Z,0.00
2022-09-03T03:20:33.604Z,0.00
2022-09-03T03:21:33.916Z,0.00
2022-09-03T03:22:34.282Z,0.00
2022-09-03T03:23:34.642Z,0.00
2022-09-03T03:24:35.022Z,0.00
2022-09-03T03:25:35.377Z,0.00
2022-09-03T03:26:35.728Z,0.00
2022-09-03T03:27:36.090Z,0.00
2022-09-03T03:28:36.441Z,0.00
2022-09-03T03:29:36.801Z,0.00
2022-09-03T03:30:37.201Z,0.00
2022-09-03T03:31:37.554Z,0.00
2022-09-03T03:32:37.870Z,0.00
2022-09-03T03:33:38.266Z,0.00
2022-09-03T03:34:38.637Z,0.00
2022-09-03T03:35:38.940Z,0.00
2022-09-03T03:36:39.314Z,0.00
2022-09-03T03:37:39.675Z,0.00
2022-09-03T03:38:40.004Z,0.00
2022-09-03T03:39:40.487Z,0.00
2022-09-03T03:40:40.771Z,0.00
2022-09-03T03:41:41.120Z,0.00
2022-09-03T03:42:41.473Z,0.00
2022-09-03T03:43:41.847Z,0.00
2022-09-03T03:44:42.209Z,0.00
2022-09-03T03:45:42.595Z,0.00
2022-09-03T03:46:42.932Z,0.00
2022-09-03T03:47:43.311Z,0.00
2022-09-03T03:48:43.653Z,0.00
2022-09-03T03:49:44.071Z,0.00
2022-09-03T03:50:44.360Z,0.00
2022-09-03T03:51:44.742Z,0.00
2022-09-03T03:52:45.114Z,0.00
2022-09-03T03:53:45.509Z,0.00
2022-09-03T03:54:45.875Z,0.00
2022-09-03T03:55:46.223Z,0.00
2022-09-03T03:56:46.847Z,0.00
2022-09-03T03:57:46.626Z,0.00
2022-09-03T03:58:46.793Z,0.00
2022-09-03T03:59:46.998Z,0.00
2022-09-03T04:00:47.120Z,0.00
2022-09-03T04:01:47.583Z,0.00
2022-09-03T04:02:47.742Z,0.00
2022-09-03T04:03:47.994Z,0.00
2022-09-03T04:04:48.137Z,0.00
2022-09-03T04:05:48.641Z,0.00
2022-09-03T04:06:48.462Z,0.00
2022-09-03T04:07:48.646Z,0.00
2022-09-03T04:08:49.711Z,0.00
2022-09-03T04:09:49.065Z,0.00
2022-09-03T04:10:49.151Z,0.00
2022-09-03T04:11:49.331Z,0.00
2022-09-03T04:12:49.502Z,0.00
2022-09-03T04:13:49.805Z,0.00
2022-09-03T04:14:49.978Z,0.00
2022-09-03T04:15:50.251Z,0.00
2022-09-03T04:16:50.528Z,0.00
2022-09-03T04:17:50.617Z,0.00
2022-09-03T04:18:50.895Z,0.00
2022-09-03T04:19:51.098Z,0.00
2022-09-03T04:20:51.283Z,0.00
2022-09-03T04:21:51.441Z,0.00
2022-09-03T04:22:52.135Z,0.00
2022-09-03T04:23:51.790Z,0.00
2022-09-03T04:24:52.088Z,0.00
2022-09-03T04:25:52.364Z,5.62
2022-09-03T04:26:52.569Z,5.62
2022-09-03T04:27:52.824Z,5.62
2022-09-03T04:28:52.989Z,5.62
2022-09-03T04:29:53.330Z,5.62
2022-09-03T04:30:53.532Z,5.62
2022-09-03T04:31:53.786Z,5.62
2022-09-03T04:32:53.951Z,11.25
2022-09-03T04:33:54.145Z,11.25
2022-09-03T04:34:54.336Z,11.25
2022-09-03T04:35:54.496Z,11.25
2022-09-03T04:36:54.708Z,11.25
2022-09-03T04:37:54.845Z,16.88
2022-09-03T04:38:55.020Z,16.88
2022-09-03T04:39:55.334Z,16.88
2022-09-03T04:40:55.346Z,16.88
2022-09-03T04:41:55.536Z,22.50
2022-09-03T04:42:55.710Z,22.50
2022-09-03T04:43:55.869Z,22.50
2022-09-03T04:44:56.084Z,22.50
2022-09-03T04:45:56.300Z,28.12
2022-09-03T04:46:56.370Z,28.12
2022-09-03T04:47:56.571Z,28.12
2022-09-03T04:48:56.719Z,28.12
2022-09-03T04:49:56.914Z,33.75
2022-09-03T04:50:57.072Z,33.75
2022-09-03T04:51:57.224Z,33.75
2022-09-03T04:52:57.406Z,39.38
2022-09-03T04:53:57.587Z,39.38
2022-09-03T04:54:57.798Z,39.38
2022-09-03T04:55:57.921Z,45.00
2022-09-03T04:56:58.092Z,45.00
2022-09-03T04:57:58.263Z,45.00
2022-09-03T04:58:58.473Z,50.62
2022-09-03T04:59:58.636Z,50.62
2022-09-03T05:00:58.812Z,50.62
2022-09-03T05:01:58.987Z,56.25
2022-09-03T05:02:59.111Z,56.25
2022-09-03T05:03:59.281Z,56.25
2022-09-03T05:04:59.453Z,61.88
2022-09-03T05:05:59.750Z,61.88
2022-09-03T05:06:59.916Z,61.88
2022-09-03T05:08:00.097Z,67.50
2022-09-03T05:09:00.254Z,67.50
2022-09-03T05:10:00.442Z,67.50
2022-09-03T05:11:00.581Z,73.12
2022-09-03T05:12:00.778Z,73.12
2022-09-03T05:13:00.925Z,73.12
2022-09-03T05:14:01.165Z,78.75
2022-09-03T05:15:01.314Z,78.75
2022-09-03T05:16:01.558Z,78.75
2022-09-03T05:17:01.668Z,78.75
2022-09-03T05:18:01.855Z,84.38
2022-09-03T05:19:02.062Z,84.38
2022-09-03T05:20:02.266Z,84.38
2022-09-03T05:21:02.410Z,84.38
2022-09-03T05:22:02.601Z,90.00
2022-09-03T05:23:02.957Z,90.00
2022-09-03T05:24:03.017Z,95.62
2022-09-03T05:25:03.265Z,95.62
2022-09-03T05:26:03.385Z,95.62
2022-09-03T05:27:03.550Z,95.62
2022-09-03T05:28:03.743Z,101.25
2022-09-03T05:29:03.943Z,101.25
2022-09-03T05:30:04.141Z,101.25
2022-09-03T05:31:04.315Z,101.25
2022-09-03T05:32:04.591Z,106.88
2022-09-03T05:33:04.718Z,106.88
2022-09-03T05:34:04.867Z,106.88
2022-09-03T05:35:05.069Z,106.88
2022-09-03T05:36:05.253Z,112.50
2022-09-03T05:37:05.445Z,112.50
2022-09-03T05:38:05.693Z,112.50
2022-09-03T05:39:05.827Z,112.50
2022-09-03T05:40:06.103Z,118.12
2022-09-03T05:41:06.218Z,118.12
2022-09-03T05:42:06.409Z,118.12
2022-09-03T05:43:08.484Z,118.12
2022-09-03T05:44:06.782Z,118.12
2022-09-03T05:45:06.983Z,123.75
2022-09-03T05:46:07.253Z,123.75
2022-09-03T05:47:07.375Z,123.75
2022-09-03T05:48:07.551Z,123.75
2022-09-03T05:49:07.737Z,129.38
2022-09-03T05:50:07.966Z,129.38
2022-09-03T05:51:08.118Z,129.38
2022-09-03T05:52:08.322Z,129.38
2022-09-03T05:53:08.518Z,129.38
2022-09-03T05:54:08.947Z,135.00
2022-09-03T05:55:13.187Z,135.00
2022-09-03T05:56:09.108Z,135.00
2022-09-03T05:57:09.286Z,135.00
2022-09-03T05:58:09.483Z,135.00
2022-09-03T05:59:09.644Z,140.62
2022-09-03T06:00:09.867Z,140.62
2022-09-03T06:01:10.013Z,140.62
2022-09-03T06:02:10.363Z,140.62
2022-09-03T06:03:10.559Z,140.62
2022-09-03T06:04:10.574Z,146.25
2022-09-03T06:05:10.766Z,146.25
2022-09-03T06:06:10.976Z,146.25
2022-09-03T06:07:11.197Z,146.25
2022-09-03T06:08:12.660Z,146.25
2022-09-03T06:09:11.499Z,146.25
2022-09-03T06:10:11.748Z,151.88
2022-09-03T06:11:11.891Z,151.88
2022-09-03T06:12:12.138Z,151.88
2022-09-03T06:13:12.264Z,151.88
2022-09-03T06:14:12.458Z,151.88
2022-09-03T06:15:12.679Z,151.88
2022-09-03T06:16:12.880Z,157.50
2022-09-03T06:17:13.017Z,157.50
2022-09-03T06:18:13.194Z,157.50
2022-09-03T06:19:13.384Z,157.50
2022-09-03T06:20:13.602Z,157.50
2022-09-03T06:21:13.771Z,157.50
2022-09-03T06:22:13.948Z,157.50
2022-09-03T06:23:14.134Z,163.12
2022-09-03T06:24:14.812Z,163.12
2022-09-03T06:25:14.520Z,163.12
2022-09-03T06:26:14.728Z,163.12
2022-09-03T06:27:14.936Z,163.12
2022-09-03T06:28:15.214Z,163.12
2022-09-03T06:29:15.270Z,163.12
2022-09-03T06:30:15.473Z,168.75
2022-09-03T06:31:15.706Z,168.75
2022-09-03T06:32:15.856Z,168.75
2022-09-03T06:33:16.111Z,168.75
2022-09-03T06:34:16.222Z,168.75
2022-09-03T06:35:16.434Z,168.75
2022-09-03T06:36:16.614Z,168.75
2022-09-03T06:37:16.814Z,174.38
2022-09-03T06:38:16.995Z,174.38
2022-09-03T06:39:17.281Z,174.38
2022-09-03T06:40:17.444Z,174.38
2022-09-03T06:41:17.560Z,174.38
2022-09-03T06:42:17.751Z,174.38
2022-09-03T06:43:17.953Z,174.38
2022-09-03T06:44:18.113Z,174.38
2022-09-03T06:45:18.345Z,180.00
2022-09-03T06:46:18.511Z,180.00
2022-09-03T06:47:18.680Z,180.00
2022-09-03T06:48:18.871Z,180.00
2022-09-03T06:49:19.072Z,180.00
2022-09-03T06:50:19.268Z,180.00
2022-09-03T06:51:19.468Z,180.00
2022-09-03T06:52:19.670Z,185.62
2022-09-03T06:53:19.858Z,185.62
2022-09-03T06:54:20.038Z,185.62
2022-09-03T06:55:20.274Z,185.62
2022-09-03T06:56:20.429Z,185.62
2022-09-03T06:57:20.625Z,185.62
2022-09-03T06:58:20.838Z,185.62
2022-09-03T06:59:20.994Z,191.25
2022-09-03T07:00:21.208Z,191.25
2022-09-03T07:01:21.476Z,191.25
2022-09-03T07:02:21.736Z,191.25
2022-09-03T07:03:21.823Z,191.25
2022-09-03T07:04:21.972Z,191.25
2022-09-03T07:05:22.178Z,191.25
2022-09-03T07:06:22.354Z,191.25
2022-09-03T07:07:22.496Z,196.88
2022-09-03T07:08:22.786Z,196.88
2022-09-03T07:09:22.888Z,196.88
2022-09-03T07:10:23.145Z,196.88
2022-09-03T07:11:23.287Z,196.88
2022-09-03T07:12:23.480Z,196.88
2022-09-03T07:13:23.659Z,202.50
2022-09-03T07:14:23.847Z,202.50
2022-09-03T07:15:24.074Z,202.50
2022-09-03T07:16:24.294Z,202.50
2022-09-03T07:17:24.390Z,202.50
2022-09-03T07:18:24.719Z,208.12
2022-09-03T07:19:24.774Z,208.12
2022-09-03T07:20:24.993Z,208.12
2022-09-03T07:21:25.167Z,208.12
2022-09-03T07:22:31.286Z,208.12
2022-09-03T07:23:25.545Z,213.75
2022-09-03T07:24:25.754Z,213.75
2022-09-03T07:25:25.940Z,213.75
2022-09-03T07:26:26.130Z,213.75
2022-09-03T07:27:26.324Z,213.75
2022-09-03T07:28:26.542Z,219.38
2022-09-03T07:29:26.696Z,219.38
2022-09-03T07:30:26.927Z,219.38
2022-09-03T07:31:27.167Z,219.38
2022-09-03T07:32:27.280Z,225.00
2022-09-03T07:33:30.640Z,225.00
2022-09-03T07:34:27.605Z,225.00
2022-09-03T07:35:33.810Z,225.00
2022-09-03T07:36:27.980Z,230.62
2022-09-03T07:37:28.173Z,230.62
2022-09-03T07:38:28.364Z,230.62
2022-09-03T07:39:28.577Z,230.62
2022-09-03T07:40:28.743Z,236.25
2022-09-03T07:41:29.219Z,236.25
2022-09-03T07:42:29.148Z,236.25
2022-09-03T07:43:29.297Z,236.25
2022-09-03T07:44:29.487Z,236.25
2022-09-03T07:45:29.663Z,236.25
2022-09-03T07:46:29.918Z,236.25
2022-09-03T07:47:30.024Z,236.25
2022-09-03T07:48:33.159Z,236.25
2022-09-03T07:49:30.408Z,236.25
2022-09-03T07:50:30.588Z,236.25
2022-09-03T07:51:30.817Z,236.25
2022-09-03T07:52:30.983Z,236.25
2022-09-03T07:53:31.259Z,241.88
2022-09-03T07:54:31.376Z,241.88
2022-09-03T07:55:31.570Z,241.88
2022-09-03T07:56:31.802Z,241.88
2022-09-03T07:57:31.971Z,241.88
2022-09-03T07:58:32.125Z,247.50
2022-09-03T07:59:32.316Z,247.50
2022-09-03T08:00:32.589Z,247.50
2022-09-03T08:01:32.709Z,247.50
2022-09-03T08:02:32.861Z,253.12
2022-09-03T08:03:33.102Z,253.12
2022-09-03T08:04:33.248Z,253.12
2022-09-03T08:05:33.451Z,258.75
2022-09-03T08:06:33.650Z,258.75
2022-09-03T08:07:33.821Z,258.75
2022-09-03T08:08:35.488Z,264.38
2022-09-03T08:09:34.202Z,264.38
2022-09-03T08:10:34.393Z,270.00
2022-09-03T08:11:34.629Z,270.00
2022-09-03T08:12:34.778Z,270.00
2022-09-03T08:13:34.975Z,275.62
2022-09-03T08:14:35.164Z,275.62
2022-09-03T08:15:35.369Z,281.25
2022-09-03T08:16:35.654Z,281.25
2022-09-03T08:17:35.741Z,286.88
2022-09-03T08:18:35.942Z,298.12
2022-09-03T08:19:36.127Z,292.50
2022-09-03T08:20:36.319Z,298.12
2022-09-03T08:21:36.553Z,298.12
2022-09-03T08:22:36.675Z,303.75
2022-09-03T08:23:36.860Z,303.75
2022-09-03T08:24:37.048Z,303.75
2022-09-03T08:25:37.248Z,309.38
2022-09-03T08:26:37.459Z,309.38
2022-09-03T08:27:37.606Z,309.38
2022-09-03T08:28:37.798Z,309.38
2022-09-03T08:29:37.988Z,309.38
2022-09-03T08:30:38.177Z,303.75
2022-09-03T08:31:38.440Z,303.75
2022-09-03T08:32:38.564Z,303.75
2022-09-03T08:33:38.762Z,303.75
2022-09-03T08:34:38.975Z,303.75
2022-09-03T08:35:39.140Z,303.75
2022-09-03T08:36:39.365Z,303.75
2022-09-03T08:37:39.519Z,303.75
2022-09-03T08:38:39.716Z,309.38
2022-09-03T08:39:39.949Z,309.38
2022-09-03T08:40:40.093Z,303.75
2022-09-03T08:41:40.342Z,298.12
2022-09-03T08:42:40.474Z,292.50
2022-09-03T08:43:40.669Z,292.50
2022-09-03T08:44:40.857Z,286.88
2022-09-03T08:45:41.054Z,286.88
2022-09-03T08:46:41.318Z,286.88
2022-09-03T08:47:41.459Z,292.50
2022-09-03T08:48:41.639Z,292.50
2022-09-03T08:49:41.823Z,292.50
2022-09-03T08:50:42.007Z,298.12
2022-09-03T08:51:42.213Z,303.75
2022-09-03T08:52:42.365Z,303.75
2022-09-03T08:53:42.557Z,315.00
2022-09-03T08:54:42.734Z,320.62
2022-09-03T08:55:42.923Z,320.62
2022-09-03T08:56:43.129Z,326.25
2022-09-03T08:57:43.318Z,331.88
2022-09-03T08:58:43.512Z,337.50
2022-09-03T08:59:43.720Z,343.12
2022-09-03T09:00:43.903Z,348.75
2022-09-03T09:01:44.201Z,348.75
2022-09-03T09:02:44.385Z,354.38
2022-09-03T09:03:44.452Z,360.00
2022-09-03T09:04:44.636Z,360.00
2022-09-03T09:05:44.871Z,360.00
2022-09-03T09:06:45.046Z,360.00
2022-09-03T09:07:45.235Z,365.62
2022-09-03T09:08:45.430Z,365.62
2022-09-03T09:09:45.630Z,365.62
2022-09-03T09:10:45.817Z,365.62
2022-09-03T09:11:46.014Z,365.62
2022-09-03T09:12:47.051Z,360.00
2022-09-03T09:13:46.405Z,354.38
2022-09-03T09:14:46.601Z,354.38
2022-09-03T09:15:46.825Z,354.38
2022-09-03T09:16:46.983Z,360.00
2022-09-03T09:17:47.200Z,360.00
2022-09-03T09:18:47.341Z,360.00
2022-09-03T09:19:47.532Z,354.38
2022-09-03T09:20:47.744Z,348.75
2022-09-03T09:21:47.937Z,348.75
2022-09-03T09:22:48.091Z,348.75
2022-09-03T09:23:48.286Z,348.75
2022-09-03T09:24:48.476Z,354.38
2022-09-03T09:25:48.697Z,365.62
2022-09-03T09:26:48.900Z,371.25
2022-09-03T09:27:49.086Z,371.25
2022-09-03T09:28:51.052Z,365.62
2022-09-03T09:29:49.485Z,365.62
2022-09-03T09:30:49.730Z,360.00
2022-09-03T09:31:49.902Z,360.00
2022-09-03T09:32:50.053Z,354.38
2022-09-03T09:33:50.240Z,354.38
2022-09-03T09:34:52.568Z,348.75
2022-09-03T09:35:50.591Z,343.12
2022-09-03T09:36:50.805Z,343.12
2022-09-03T09:37:50.964Z,337.50
2022-09-03T09:38:51.153Z,337.50
2022-09-03T09:39:51.413Z,337.50
2022-09-03T09:40:51.532Z,337.50
2022-09-03T09:41:51.794Z,337.50
2022-09-03T09:42:51.909Z,343.12
2022-09-03T09:43:52.091Z,348.75
2022-09-03T09:44:52.284Z,354.38
2022-09-03T09:45:52.477Z,354.38
2022-09-03T09:46:54.852Z,360.00
2022-09-03T09:47:52.907Z,371.25
2022-09-03T09:48:53.066Z,376.88
2022-09-03T09:49:53.258Z,393.75
2022-09-03T09:50:53.449Z,562.50
2022-09-03T09:51:53.675Z,1558.12
2022-09-03T09:52:58.568Z,2418.75
2022-09-03T09:53:54.071Z,2581.88
2022-09-03T09:54:54.263Z,2666.25
2022-09-03T09:55:54.453Z,2649.38
2022-09-03T09:56:54.665Z,2666.25
2022-09-03T09:57:54.866Z,2756.25
2022-09-03T09:58:55.055Z,2835.00
2022-09-03T09:59:55.269Z,2739.38
2022-09-03T10:00:55.445Z,2745.00
2022-09-03T10:01:55.677Z,2908.12
2022-09-03T10:02:55.899Z,3031.88
2022-09-03T10:03:56.035Z,2840.62
2022-09-03T10:04:56.227Z,2486.25
2022-09-03T10:05:56.418Z,2396.25
2022-09-03T10:06:56.617Z,2401.88
2022-09-03T10:07:56.813Z,2542.50
2022-09-03T10:08:57.047Z,2694.38
2022-09-03T10:09:57.236Z,2840.62
2022-09-03T10:10:57.422Z,3003.75
2022-09-03T10:11:57.632Z,2958.75
2022-09-03T10:12:57.863Z,2739.38
2022-09-03T10:13:58.022Z,2756.25
2022-09-03T10:14:58.215Z,2992.50
2022-09-03T10:15:58.446Z,3093.75
2022-09-03T10:16:58.615Z,3043.12
2022-09-03T10:17:58.818Z,2840.62
2022-09-03T10:18:59.020Z,2688.75
2022-09-03T10:19:59.200Z,2598.75
2022-09-03T10:20:59.431Z,2520.00
2022-09-03T10:21:59.688Z,2716.88
2022-09-03T10:22:59.865Z,2891.25
2022-09-03T10:24:03.636Z,3076.88
2022-09-03T10:25:00.269Z,3099.38
2022-09-03T10:26:00.417Z,3048.75
2022-09-03T10:27:00.634Z,2885.62
2022-09-03T10:28:00.792Z,2857.50
2022-09-03T10:29:01.001Z,2891.25
2022-09-03T10:30:01.195Z,2863.12
2022-09-03T10:31:01.443Z,2941.88
2022-09-03T10:32:01.627Z,3054.38
2022-09-03T10:33:01.801Z,2216.25
2022-09-03T10:34:02.001Z,3093.75
2022-09-03T10:35:02.199Z,3043.12
2022-09-03T10:36:02.396Z,2812.50
2022-09-03T10:37:02.613Z,2868.75
2022-09-03T10:38:02.786Z,2970.00
2022-09-03T10:39:02.985Z,2823.75
2022-09-03T10:40:03.303Z,2677.50
2022-09-03T10:41:03.363Z,2576.25
2022-09-03T10:42:03.607Z,1794.38
2022-09-03T10:43:03.756Z,1406.25
2022-09-03T10:44:03.946Z,2958.75
2022-09-03T10:45:04.130Z,3071.25
2022-09-03T10:46:04.327Z,3346.88
2022-09-03T10:47:04.535Z,691.88
2022-09-03T10:48:04.716Z,2666.25
2022-09-03T10:49:04.944Z,2874.38
2022-09-03T10:50:05.122Z,3436.88
2022-09-03T10:51:05.296Z,703.12
2022-09-03T10:52:05.499Z,686.25
2022-09-03T10:53:05.688Z,708.75
2022-09-03T10:54:05.881Z,793.12
2022-09-03T10:55:06.095Z,838.12
2022-09-03T10:56:06.289Z,3330.00
2022-09-03T10:57:06.473Z,3116.25
2022-09-03T10:58:06.707Z,3071.25
2022-09-03T10:59:06.856Z,3082.50
2022-09-03T11:00:07.037Z,3082.50
2022-09-03T11:01:07.286Z,2998.12
2022-09-03T11:02:07.451Z,2092.50
2022-09-03T11:03:07.689Z,3200.62
2022-09-03T11:04:07.857Z,3211.88
2022-09-03T11:05:08.056Z,3465.00
2022-09-03T11:06:08.251Z,3476.25
2022-09-03T11:07:08.498Z,2970.00
2022-09-03T11:08:08.678Z,2716.88
2022-09-03T11:09:08.873Z,2610.00
2022-09-03T11:10:09.076Z,2610.00
2022-09-03T11:11:09.265Z,2638.12
2022-09-03T11:12:09.477Z,2486.25
2022-09-03T11:13:09.670Z,3183.75
2022-09-03T11:14:09.880Z,3397.50
2022-09-03T11:15:10.105Z,3380.62
2022-09-03T11:16:10.329Z,663.75
2022-09-03T11:17:10.527Z,2958.75
2022-09-03T11:18:10.728Z,1102.50
2022-09-03T11:19:10.913Z,2351.25
2022-09-03T11:20:11.097Z,2790.00
2022-09-03T11:21:12.315Z,551.25
2022-09-03T11:22:11.513Z,2761.88
2022-09-03T11:23:11.692Z,2919.38
2022-09-03T11:24:11.879Z,3211.88
2022-09-03T11:25:12.074Z,3206.25
2022-09-03T11:26:12.242Z,579.38
2022-09-03T11:27:12.450Z,573.75
2022-09-03T11:28:12.619Z,1445.62
2022-09-03T11:29:12.825Z,3076.88
2022-09-03T11:30:13.068Z,3071.25
2022-09-03T11:31:13.287Z,2790.00
2022-09-03T11:32:13.414Z,2475.00
2022-09-03T11:33:13.611Z,2424.38
2022-09-03T11:34:13.805Z,2587.50
2022-09-03T11:35:14.021Z,2621.25
2022-09-03T11:36:14.198Z,2480.62
2022-09-03T11:37:14.397Z,2570.62
2022-09-03T11:38:14.594Z,2733.75
2022-09-03T11:39:14.807Z,2705.62
2022-09-03T11:40:14.997Z,2452.50
2022-09-03T11:41:15.189Z,1850.62
2022-09-03T11:42:15.423Z,680.62
2022-09-03T11:43:15.577Z,2131.88
2022-09-03T11:44:15.763Z,2542.50
2022-09-03T11:45:15.960Z,2559.38
2022-09-03T11:46:16.195Z,2868.75
2022-09-03T11:47:16.376Z,2880.00
2022-09-03T11:48:16.565Z,2761.88
2022-09-03T11:49:16.775Z,2424.38
2022-09-03T11:50:16.957Z,2013.75
2022-09-03T11:51:17.140Z,2025.00
2022-09-03T11:52:17.350Z,2491.88
2022-09-03T11:53:17.541Z,2885.62
2022-09-03T11:54:17.730Z,3116.25
2022-09-03T11:55:17.938Z,2992.50
2022-09-03T11:56:18.128Z,2565.00
2022-09-03T11:57:18.371Z,2463.75
2022-09-03T11:58:18.505Z,2655.00
2022-09-03T11:59:18.704Z,2790.00
2022-09-03T12:00:18.901Z,3043.12
2022-09-03T12:01:19.111Z,3256.88
2022-09-03T12:02:19.343Z,2930.62
2022-09-03T12:03:19.567Z,2919.38
2022-09-03T12:04:19.778Z,3166.88
2022-09-03T12:05:19.931Z,3431.25
2022-09-03T12:06:20.136Z,3200.62
2022-09-03T12:07:20.855Z,2649.38
2022-09-03T12:08:20.523Z,2300.62
2022-09-03T12:09:20.713Z,2221.88
2022-09-03T12:10:20.913Z,2328.75
2022-09-03T12:11:21.118Z,2818.12
2022-09-03T12:12:21.350Z,2896.88
2022-09-03T12:13:21.547Z,2514.38
2022-09-03T12:14:21.755Z,2604.38
2022-09-03T12:15:21.941Z,2880.00
2022-09-03T12:16:22.234Z,2863.12
2022-09-03T12:17:22.359Z,2643.75
2022-09-03T12:18:22.531Z,2559.38
2022-09-03T12:19:22.714Z,3031.88
2022-09-03T12:20:22.921Z,3127.50
2022-09-03T12:21:23.137Z,2638.12
2022-09-03T12:22:23.351Z,2503.12
2022-09-03T12:23:23.603Z,2435.62
2022-09-03T12:24:23.737Z,2458.12
2022-09-03T12:25:23.947Z,2598.75
2022-09-03T12:26:24.151Z,2773.12
2022-09-03T12:27:24.376Z,2739.38
2022-09-03T12:28:24.573Z,2851.88
2022-09-03T12:29:27.794Z,3015.00
2022-09-03T12:30:24.989Z,2925.00
2022-09-03T12:31:25.183Z,2919.38
2022-09-03T12:32:25.402Z,2851.88
2022-09-03T12:33:25.862Z,2913.75
2022-09-03T12:34:25.807Z,2745.00
2022-09-03T12:36:26.213Z,2700.00
2022-09-03T12:38:26.595Z,3161.25
2022-09-03T12:40:27.087Z,2908.12
2022-09-03T12:41:27.916Z,1985.62
2022-09-03T12:42:27.456Z,2553.75
2022-09-03T12:43:47.609Z,2705.62
2022-09-03T12:44:27.810Z,2964.38
2022-09-03T12:46:09.950Z,2964.38
2022-09-03T12:46:33.262Z,2919.38
2022-09-03T12:47:37.219Z,2835.00
2022-09-03T12:48:28.628Z,2694.38